Etusivu
METAR-TAF:

METAR-TAF

Lentoasemat :

Kimmirut, Nunavut, Kanada

Leveyspiiri: 62-51N, Pituuspiiri: 069-53W, korkeus merenpinnasta: 53 m

Tämänhetkinen sää

Tämä raportti tehtiin 42 minuuttia sitten, kello 18.00 UTC
Tuuli 9 kn pohjoisesta, vaihdellen pohjoisen/luoteen ja koillisen välillä
Lämpötila -1°C
Kosteus 74%
Ilmanpaine 1014 hPa
Näkyvyys: 24.1 km
Hajanaisia pilviä 1800 ft:n korkeudessa
Hajonneita pilviä 2700 ft:n korkeudessa

METAR: CYLC 281800Z 01009KT 340V050 15SM SCT018 BKN027 M01/M05 A2995 RMK SC3SC3 SLP147

Aika: 14:42 (18:42 UTC)


TAF: puuttuu

Säähavainnot ja -ennusteet yli 4000 lentoasemalta (METAR- ja TAF-raportit).

Käytössä olevat sääasemat on merkitty karttaan keltaisilla ja punaisilla pisteillä.

Aseta hiiri pisteen päälle nähdäksesi sääaseman nimen.

Klikkaa sitten nähdäksesi säähavainnot ja -ennusteet.

Kartan vaihtaminen: klikkaa mustalla rastilla varustettuja vihreitä pisteitä, niin voit zoomata sisään; viivalla varustettua vihreää pistettä, niin voit zoomata ulos tai vihreitä nuolia, niin pääset viereisille kartoille.


METAR-TAF: